Time;durP1;ratioP1;P1;durP2;ratioP2;P2;SDS_P1;SDS_P2;PMS_P1;PMS_P2;Temp;Humidity;BMP_temperature;BMP_pressure;BME280_temperature;BME280_humidity;BME280_pressure;Samples;Min_cycle;Max_cycle;Signal;HPM_P1;HPM_P2
2023/12/10 00:00:57;;;;;;;26.40;4.75;;;8.70;99.90;;;;;;4991432;28;20110;-89
2023/12/10 00:03:23;;;;;;;27.88;4.68;;;10.30;99.90;;;;;;4997019;28;20030;-86
2023/12/10 00:05:48;;;;;;;33.92;4.45;;;10.20;99.90;;;;;;5010477;28;20032;-87
2023/12/10 00:08:14;;;;;;;24.23;4.35;;;10.30;99.90;;;;;;4992290;28;20030;-87
2023/12/10 00:14:28;;;;;;;;;;;;;;;;;;;;;
2023/12/10 00:16:56;;;;;;;29.98;4.80;;;10.10;99.90;;;;;;4888169;28;20566;-88
2023/12/10 00:19:22;;;;;;;26.48;4.35;;;8.50;99.90;;;;;;5002421;28;20077;-91
2023/12/10 00:21:48;;;;;;;33.13;4.85;;;10.20;99.90;;;;;;4994795;28;20033;-87
2023/12/10 00:24:13;;;;;;;25.27;4.10;;;10.10;99.90;;;;;;5008849;28;20136;-86
2023/12/10 00:26:39;;;;;;;30.58;4.68;;;10.20;99.90;;;;;;5013303;28;20041;-89
2023/12/10 00:29:05;;;;;;;19.85;3.55;;;10.20;99.90;;;;;;4991087;28;20409;-88
2023/12/10 00:31:30;;;;;;;19.85;3.28;;;10.20;99.90;;;;;;4993465;28;20018;-86
2023/12/10 00:37:54;;;;;;;;;;;;;;;;;;;;;
2023/12/10 00:41:01;;;;;;;21.80;3.53;;;9.60;99.90;;;;;;4897302;29;20044;-87
2023/12/10 00:43:29;;;;;;;14.80;3.22;;;9.20;99.90;;;;;;4910828;29;20102;-87
2023/12/10 00:45:56;;;;;;;16.65;2.67;;;9.50;99.90;;;;;;4902568;29;20114;-87
2023/12/10 00:48:21;;;;;;;13.10;2.25;;;9.50;99.90;;;;;;4963519;28;20046;-87
2023/12/10 00:50:47;;;;;;;14.52;2.33;;;9.40;99.90;;;;;;5005132;28;20141;-90
2023/12/10 00:53:13;;;;;;;14.65;2.88;;;9.60;99.90;;;;;;4997475;28;20038;-91
2023/12/10 00:55:39;;;;;;;13.55;2.88;;;9.50;99.90;;;;;;4997601;28;20045;-87
2023/12/10 00:58:07;;;;;;;15.68;2.55;;;9.40;99.90;;;;;;4997605;28;20094;-86
2023/12/10 01:00:33;;;;;;;15.60;2.28;;;9.40;99.90;;;;;;5012259;28;20476;-85
2023/12/10 01:02:59;;;;;;;14.57;2.67;;;9.20;99.90;;;;;;5013877;28;20133;-87
2023/12/10 01:06:50;;;;;;;18.13;2.50;;;9.20;99.90;;;;;;5020852;28;20017;-87
2023/12/10 01:08:51;;;;;;;12.82;2.22;;;8.80;99.90;;;;;;4979706;28;20048;-87
2023/12/10 01:11:16;;;;;;;14.27;2.13;;;9.30;99.90;;;;;;5013566;28;20035;-87
2023/12/10 01:13:42;;;;;;;20.10;3.13;;;9.20;99.90;;;;;;4992988;28;20035;-88
2023/12/10 01:16:08;;;;;;;10.80;2.42;;;9.10;99.90;;;;;;4995368;28;20042;-88
2023/12/10 01:18:37;;;;;;;11.88;2.63;;;9.30;99.90;;;;;;4992696;28;20049;-87
2023/12/10 01:21:03;;;;;;;14.95;2.72;;;7.90;99.90;;;;;;4976273;28;20120;-85
2023/12/10 01:23:29;;;;;;;19.25;2.67;;;9.00;99.90;;;;;;5009088;28;20565;-87
2023/12/10 01:25:55;;;;;;;18.02;3.00;;;9.00;99.90;;;;;;4991407;28;20129;-85
2023/12/10 01:28:20;;;;;;;20.75;3.33;;;9.00;99.90;;;;;;5009344;28;20066;-88
2023/12/10 01:30:46;;;;;;;18.90;3.72;;;9.00;99.90;;;;;;5011047;28;20017;-86
2023/12/10 01:33:12;;;;;;;18.98;3.47;;;9.00;99.90;;;;;;4989322;28;20017;-87
2023/12/10 01:35:37;;;;;;;22.95;3.10;;;9.00;99.90;;;;;;5014500;28;20052;-88
2023/12/10 01:38:03;;;;;;;19.90;3.35;;;9.00;99.90;;;;;;4991030;28;20060;-87
2023/12/10 01:40:29;;;;;;;23.88;4.10;;;9.00;99.90;;;;;;5014120;28;20030;-89
2023/12/10 01:42:54;;;;;;;19.92;3.50;;;9.80;99.90;;;;;;5020330;28;20026;-89
2023/12/10 01:45:20;;;;;;;23.05;3.65;;;9.10;99.90;;;;;;5022914;28;20112;-90
2023/12/10 01:47:52;;;;;;;25.92;3.83;;;9.10;99.90;;;;;;5000399;28;20528;-86
2023/12/10 01:50:21;;;;;;;25.08;4.28;;;9.10;99.90;;;;;;5017224;28;20026;-89
2023/12/10 01:52:47;;;;;;;18.35;3.47;;;9.20;99.90;;;;;;5000285;28;20094;-90
2023/12/10 01:55:14;;;;;;;28.73;4.18;;;9.20;99.90;;;;;;5024516;28;20033;-87
2023/12/10 01:57:40;;;;;;;27.98;3.63;;;9.20;99.90;;;;;;5002250;28;20045;-88
2023/12/10 02:00:07;;;;;;;21.55;4.22;;;9.20;99.90;;;;;;5017769;28;20026;-89
2023/12/10 02:02:34;;;;;;;18.27;3.42;;;9.20;99.90;;;;;;4997158;28;20034;-85
2023/12/10 02:05:06;;;;;;;23.67;3.92;;;9.20;99.90;;;;;;5013793;28;20041;-88
2023/12/10 02:07:32;;;;;;;25.88;4.40;;;9.20;99.90;;;;;;4993817;28;20036;-90
2023/12/10 02:09:58;;;;;;;24.90;4.80;;;9.30;99.90;;;;;;4993766;28;20488;-89
2023/12/10 02:12:24;;;;;;;21.42;3.92;;;9.30;99.90;;;;;;4995212;28;20064;-87
2023/12/10 02:14:50;;;;;;;16.95;3.67;;;9.40;99.90;;;;;;4993293;28;20698;-87
2023/12/10 02:17:16;;;;;;;22.48;3.88;;;9.40;99.90;;;;;;4991381;28;20270;-88
2023/12/10 02:19:42;;;;;;;23.83;4.15;;;9.30;99.90;;;;;;4999696;28;20069;-88
2023/12/10 02:22:13;;;;;;;28.55;4.00;;;9.30;99.90;;;;;;5010059;28;20052;-86
2023/12/10 02:24:56;;;;;;;21.27;3.38;;;9.20;99.90;;;;;;4994599;28;20029;-87
2023/12/10 02:27:22;;;;;;;20.75;3.58;;;9.30;99.90;;;;;;4987374;28;20022;-89
2023/12/10 02:29:49;;;;;;;20.52;3.33;;;9.20;99.90;;;;;;4983307;28;20049;-90
2023/12/10 02:32:15;;;;;;;19.00;3.33;;;9.20;99.90;;;;;;4991175;28;20019;-88
2023/12/10 02:34:40;;;;;;;17.52;3.15;;;9.40;99.90;;;;;;4992223;28;20125;-88
2023/12/10 02:37:06;;;;;;;21.25;3.30;;;9.20;99.90;;;;;;4996572;28;20036;-86
2023/12/10 02:39:32;;;;;;;16.30;3.00;;;9.50;99.90;;;;;;5013919;28;20067;-88
2023/12/10 02:41:58;;;;;;;17.75;3.25;;;9.20;99.90;;;;;;5011738;28;20026;-87
2023/12/10 02:44:24;;;;;;;17.90;3.13;;;9.10;99.90;;;;;;4992567;28;20034;-88
2023/12/10 02:46:49;;;;;;;25.30;3.58;;;9.20;99.90;;;;;;5009809;28;20061;-86
2023/12/10 02:49:15;;;;;;;22.45;3.38;;;9.00;99.90;;;;;;5011981;28;20025;-84
2023/12/10 02:51:41;;;;;;;21.23;3.38;;;9.10;99.90;;;;;;5015565;28;20077;-87
2023/12/10 02:54:07;;;;;;;17.42;3.00;;;;;;;;;;5012890;28;20026;-87
2023/12/10 02:56:33;;;;;;;22.55;3.20;;;9.20;99.90;;;;;;4994925;28;20045;-87
2023/12/10 02:58:59;;;;;;;17.45;2.72;;;9.30;99.90;;;;;;5006736;28;20026;-88
2023/12/10 03:01:24;;;;;;;18.45;3.47;;;9.20;99.90;;;;;;5011495;28;20060;-85
2023/12/10 03:03:50;;;;;;;19.30;2.92;;;9.40;99.90;;;;;;5006011;28;20040;-87
2023/12/10 03:06:16;;;;;;;16.60;2.78;;;9.10;99.90;;;;;;4994299;28;20026;-88
2023/12/10 03:08:41;;;;;;;17.33;3.42;;;9.20;99.90;;;;;;5009201;28;20030;-88
2023/12/10 03:11:07;;;;;;;20.30;3.72;;;9.30;99.90;;;;;;4979487;28;20542;-86
2023/12/10 03:13:33;;;;;;;14.98;2.40;;;9.30;99.90;;;;;;5007338;28;20022;-87
2023/12/10 03:15:58;;;;;;;24.25;3.83;;;9.30;99.90;;;;;;5010035;28;20480;-87
2023/12/10 03:18:25;;;;;;;20.65;3.33;;;9.20;99.90;;;;;;4992864;28;20029;-89
2023/12/10 03:20:51;;;;;;;17.15;2.80;;;9.20;99.90;;;;;;4994993;28;20052;-87
2023/12/10 03:23:17;;;;;;;23.90;3.70;;;10.40;99.90;;;;;;5010177;28;20030;-87
2023/12/10 03:25:50;;;;;;;24.90;3.97;;;9.30;99.90;;;;;;4994768;28;20487;-88
2023/12/10 03:28:16;;;;;;;18.25;3.22;;;9.20;99.90;;;;;;4990281;28;20057;-89
2023/12/10 03:30:42;;;;;;;19.55;2.47;;;9.20;99.90;;;;;;5009554;28;20030;-87
2023/12/10 03:33:07;;;;;;;18.45;3.55;;;9.30;99.90;;;;;;4992840;28;20018;-85
2023/12/10 03:35:33;;;;;;;21.90;3.53;;;9.30;99.90;;;;;;5009068;28;20026;-87
2023/12/10 03:37:59;;;;;;;20.88;4.25;;;9.10;99.90;;;;;;4993814;28;20466;-87
2023/12/10 03:40:24;;;;;;;16.70;2.80;;;9.10;99.90;;;;;;4977486;28;20030;-86
2023/12/10 03:42:50;;;;;;;20.83;4.05;;;9.10;99.90;;;;;;4994458;28;20034;-88
2023/12/10 03:45:16;;;;;;;19.63;3.38;;;8.00;99.90;;;;;;4993231;28;20021;-88
2023/12/10 03:47:46;;;;;;;19.55;3.10;;;9.40;99.90;;;;;;4993039;28;20491;-88
2023/12/10 03:50:12;;;;;;;21.90;3.33;;;;;;;;;;4992055;28;20094;-88
2023/12/10 03:52:38;;;;;;;18.58;2.75;;;9.20;99.90;;;;;;4993121;28;20045;-89
2023/12/10 03:55:04;;;;;;;19.17;3.22;;;9.20;99.90;;;;;;5009596;28;20018;-87
2023/12/10 03:57:30;;;;;;;21.33;4.43;;;9.20;99.90;;;;;;5002399;28;20389;-88
2023/12/10 03:59:56;;;;;;;29.75;3.97;;;9.20;99.90;;;;;;4995036;28;20037;-87
2023/12/10 04:02:22;;;;;;;20.92;3.63;;;;;;;;;;4991528;28;20034;-89
2023/12/10 04:04:47;;;;;;;31.90;4.05;;;9.20;99.90;;;;;;4988749;28;20029;-89
2023/12/10 04:07:13;;;;;;;20.05;3.17;;;;;;;;;;4997445;28;20484;-89
2023/12/10 04:09:39;;;;;;;21.85;3.15;;;9.20;99.90;;;;;;4992255;28;20026;-86
2023/12/10 04:12:05;;;;;;;21.52;3.20;;;7.10;99.90;;;;;;5012092;28;20108;-90
2023/12/10 04:14:31;;;;;;;22.85;3.53;;;9.40;99.90;;;;;;5008809;28;20044;-90
2023/12/10 04:16:57;;;;;;;20.25;2.83;;;9.30;99.90;;;;;;5003308;28;20033;-86
2023/12/10 04:19:22;;;;;;;19.77;4.13;;;9.30;99.90;;;;;;4993128;28;20034;-89
2023/12/10 04:21:48;;;;;;;18.17;2.60;;;;;;;;;;5005670;28;20026;-87
2023/12/10 04:24:15;;;;;;;13.30;2.88;;;9.10;99.90;;;;;;5012308;28;20048;-87
2023/12/10 04:26:41;;;;;;;18.55;2.63;;;9.10;99.90;;;;;;5010770;28;20030;-88
2023/12/10 04:29:07;;;;;;;20.05;2.92;;;9.00;99.90;;;;;;4979429;28;20093;-88
2023/12/10 04:31:32;;;;;;;18.08;2.95;;;9.10;99.90;;;;;;5013433;28;20153;-88
2023/12/10 04:34:00;;;;;;;22.77;3.25;;;;;;;;;;5001573;28;20050;-85
2023/12/10 04:36:26;;;;;;;23.10;3.72;;;9.10;99.90;;;;;;5005653;28;20031;-89
2023/12/10 04:38:52;;;;;;;19.73;3.03;;;;;;;;;;4997370;28;20484;-87
2023/12/10 04:41:17;;;;;;;20.60;2.85;;;9.00;99.90;;;;;;5013945;28;20045;-86
2023/12/10 04:43:43;;;;;;;22.08;3.67;;;9.00;99.90;;;;;;5015479;28;20030;-86
2023/12/10 04:46:09;;;;;;;18.38;3.58;;;9.10;99.90;;;;;;5014973;28;20025;-85
2023/12/10 04:48:35;;;;;;;20.00;2.95;;;9.10;99.90;;;;;;4996079;28;20029;-86
2023/12/10 04:51:00;;;;;;;18.65;3.67;;;9.60;99.90;;;;;;5017292;28;20038;-88
2023/12/10 04:53:26;;;;;;;20.05;2.80;;;;;;;;;;4998146;28;20079;-87
2023/12/10 04:55:52;;;;;;;16.77;3.22;;;;;;;;;;5002464;28;20503;-88
2023/12/10 04:58:18;;;;;;;15.65;2.83;;;9.20;99.90;;;;;;5004744;28;20030;-87
2023/12/10 05:00:44;;;;;;;13.57;2.42;;;9.30;99.90;;;;;;4999219;28;20029;-88
2023/12/10 05:03:09;;;;;;;14.60;3.33;;;9.20;99.90;;;;;;5020206;28;20057;-87
2023/12/10 05:05:35;;;;;;;17.98;3.28;;;;;;;;;;5022412;28;20034;-87
2023/12/10 05:08:01;;;;;;;15.70;3.03;;;9.20;99.90;;;;;;5006343;28;20039;-86
2023/12/10 05:10:27;;;;;;;16.00;3.00;;;;;;;;;;5018410;28;20026;-89
2023/12/10 05:12:53;;;;;;;18.20;2.95;;;9.20;99.90;;;;;;5015752;28;20558;-87
2023/12/10 05:15:18;;;;;;;15.55;2.22;;;9.20;99.90;;;;;;4998560;28;20037;-88
2023/12/10 05:17:44;;;;;;;15.88;2.72;;;9.60;99.90;;;;;;4998484;28;20030;-86
2023/12/10 05:20:10;;;;;;;20.00;3.17;;;9.10;99.90;;;;;;4998866;28;20037;-86
2023/12/10 05:22:36;;;;;;;25.90;2.85;;;9.30;99.90;;;;;;5001995;28;20037;-92
2023/12/10 05:25:03;;;;;;;20.17;3.55;;;9.20;99.90;;;;;;4999101;28;20037;-86
2023/12/10 05:27:32;;;;;;;15.57;2.85;;;9.20;99.90;;;;;;4997488;28;20030;-84
2023/12/10 05:29:58;;;;;;;18.17;2.65;;;9.70;99.90;;;;;;5014924;28;20662;-86
2023/12/10 05:32:27;;;;;;;15.98;2.45;;;9.30;99.90;;;;;;5011813;28;20029;-86
2023/12/10 05:34:53;;;;;;;13.02;2.25;;;9.30;99.90;;;;;;4995019;28;20412;-88
2023/12/10 05:37:19;;;;;;;16.95;2.60;;;;;;;;;;5011540;28;20033;-88
2023/12/10 05:39:45;;;;;;;19.52;3.40;;;9.40;99.90;;;;;;4993442;28;20038;-87
2023/12/10 05:42:11;;;;;;;17.20;2.80;;;9.30;99.90;;;;;;5005180;28;20034;-86
2023/12/10 05:44:36;;;;;;;20.98;2.97;;;9.30;99.90;;;;;;5014825;28;20383;-88
2023/12/10 05:47:02;;;;;;;14.90;3.65;;;9.70;99.90;;;;;;4991940;28;21060;-91
2023/12/10 05:49:28;;;;;;;20.05;3.95;;;;;;;;;;5011796;28;20812;-89
2023/12/10 05:51:54;;;;;;;17.52;2.92;;;9.40;99.90;;;;;;5014598;28;20034;-88
2023/12/10 05:54:20;;;;;;;16.15;4.22;;;9.30;99.90;;;;;;4994518;28;20025;-84
2023/12/10 05:56:46;;;;;;;16.15;2.60;;;;;;;;;;4995748;28;20091;-87
2023/12/10 05:59:14;;;;;;;12.27;2.28;;;;;;;;;;5012084;28;20117;-87
2023/12/10 06:01:40;;;;;;;23.33;3.75;;;9.50;99.90;;;;;;4996577;28;20034;-85
2023/12/10 06:04:06;;;;;;;16.40;2.45;;;;;;;;;;5014413;28;20404;-87
2023/12/10 06:06:32;;;;;;;23.83;3.05;;;9.50;99.90;;;;;;4995261;28;20026;-87
2023/12/10 06:08:58;;;;;;;16.60;2.45;;;;;;;;;;5011454;28;20024;-86
2023/12/10 06:11:24;;;;;;;19.65;3.22;;;9.40;99.90;;;;;;4996542;28;20033;-88
2023/12/10 06:13:49;;;;;;;15.02;2.47;;;9.30;99.90;;;;;;5010366;28;20480;-87
2023/12/10 06:16:15;;;;;;;14.70;2.42;;;;;;;;;;5015204;28;20026;-89
2023/12/10 06:18:41;;;;;;;13.93;2.50;;;9.50;99.90;;;;;;5010654;28;20065;-89
2023/12/10 06:21:07;;;;;;;27.10;4.10;;;9.40;99.90;;;;;;5008338;28;20022;-89
2023/12/10 06:23:33;;;;;;;16.45;2.97;;;9.40;99.90;;;;;;4991894;28;20502;-88
2023/12/10 06:25:59;;;;;;;18.33;2.60;;;9.50;99.90;;;;;;4996312;28;20032;-85
2023/12/10 06:28:25;;;;;;;21.15;3.25;;;9.30;99.90;;;;;;4996245;28;20044;-87
2023/12/10 06:30:51;;;;;;;14.63;2.47;;;9.40;99.90;;;;;;4985196;28;20037;-87
2023/12/10 06:33:16;;;;;;;22.05;3.20;;;10.90;99.90;;;;;;4993917;28;20042;-85
2023/12/10 06:35:42;;;;;;;14.43;1.88;;;8.70;99.90;;;;;;4994172;28;20046;-85
2023/12/10 06:38:07;;;;;;;17.80;2.63;;;9.30;99.90;;;;;;4988511;28;20140;-85
2023/12/10 06:40:33;;;;;;;16.27;3.05;;;;;;;;;;4990989;28;20018;-84
2023/12/10 06:42:59;;;;;;;14.90;3.00;;;;;;;;;;5011170;28;20026;-87
2023/12/10 06:45:25;;;;;;;18.63;3.05;;;9.40;99.90;;;;;;4994358;28;20028;-90
2023/12/10 06:47:51;;;;;;;15.48;2.33;;;;;;;;;;4994635;28;20447;-85
2023/12/10 06:50:17;;;;;;;22.08;2.97;;;9.40;99.90;;;;;;4992306;28;20089;-86
2023/12/10 06:52:43;;;;;;;17.08;3.03;;;10.00;99.90;;;;;;4994155;28;20031;-89
2023/12/10 06:55:09;;;;;;;15.00;2.78;;;9.30;99.90;;;;;;5011085;28;20017;-85
2023/12/10 06:57:35;;;;;;;20.33;3.20;;;;;;;;;;4991561;28;20053;-84
2023/12/10 07:00:00;;;;;;;18.65;2.95;;;9.30;99.90;;;;;;5010587;28;20026;-88
2023/12/10 07:02:26;;;;;;;20.65;2.90;;;;;;;;;;4996874;28;20033;-88
2023/12/10 07:04:52;;;;;;;17.65;3.25;;;9.30;99.90;;;;;;4992251;28;20045;-85
2023/12/10 07:07:18;;;;;;;16.52;2.50;;;;;;;;;;5011260;28;20037;-90
2023/12/10 07:09:44;;;;;;;23.73;4.00;;;;;;;;;;4996624;28;20022;-89
2023/12/10 07:12:10;;;;;;;17.52;2.15;;;;;;;;;;5007419;28;20019;-88
2023/12/10 07:14:36;;;;;;;17.85;3.17;;;9.40;99.90;;;;;;5014379;28;20014;-88
2023/12/10 07:17:02;;;;;;;14.20;2.42;;;9.40;99.90;;;;;;5011444;28;20372;-89
2023/12/10 07:19:27;;;;;;;17.73;2.92;;;9.40;99.90;;;;;;5009873;28;20377;-89
2023/12/10 07:21:55;;;;;;;15.63;2.55;;;;;;;;;;4991267;28;20048;-88
2023/12/10 07:24:21;;;;;;;14.27;2.40;;;9.40;99.90;;;;;;4993558;28;21317;-88
2023/12/10 07:26:47;;;;;;;13.07;2.22;;;9.40;99.90;;;;;;4992041;28;20566;-89
2023/12/10 07:29:14;;;;;;;20.10;2.78;;;9.50;99.90;;;;;;5004734;28;20160;-87
2023/12/10 07:31:39;;;;;;;16.70;2.75;;;7.70;99.90;;;;;;5005833;28;20025;-87
2023/12/10 07:34:05;;;;;;;18.83;3.03;;;9.40;99.90;;;;;;5006080;28;20030;-87
2023/12/10 07:36:31;;;;;;;24.58;3.53;;;;;;;;;;5015661;28;20049;-90
2023/12/10 07:38:57;;;;;;;16.70;2.70;;;9.40;99.90;;;;;;5004883;28;20029;-88
2023/12/10 07:41:22;;;;;;;21.10;4.05;;;9.40;99.90;;;;;;5020489;28;20684;-86
2023/12/10 07:43:48;;;;;;;19.92;2.63;;;9.30;99.90;;;;;;5000062;28;20104;-86
2023/12/10 07:46:14;;;;;;;22.27;3.13;;;9.30;99.90;;;;;;5008047;28;20094;-88
2023/12/10 07:48:40;;;;;;;16.45;2.90;;;;;;;;;;5014565;28;20033;-86
2023/12/10 07:51:06;;;;;;;17.73;2.90;;;9.40;99.90;;;;;;4995023;28;21660;-89
2023/12/10 07:53:31;;;;;;;23.40;3.40;;;9.40;99.90;;;;;;5000597;28;20495;-90
2023/12/10 07:56:00;;;;;;;18.65;2.63;;;9.50;99.90;;;;;;5008704;28;20032;-90
2023/12/10 07:58:26;;;;;;;20.25;2.85;;;9.40;99.90;;;;;;5008099;28;20539;-89
2023/12/10 08:00:52;;;;;;;19.40;3.30;;;9.40;99.90;;;;;;4993944;28;20061;-90
2023/12/10 08:03:17;;;;;;;17.40;3.17;;;9.60;99.90;;;;;;4995218;28;20084;-90
2023/12/10 08:05:43;;;;;;;21.00;3.10;;;;;;;;;;5006800;28;20438;-89
2023/12/10 08:08:09;;;;;;;18.35;2.60;;;9.40;99.90;;;;;;5008413;28;20038;-87
2023/12/10 08:10:36;;;;;;;20.85;3.15;;;;;;;;;;4995527;28;20032;-85
2023/12/10 08:13:04;;;;;;;23.13;4.10;;;9.40;99.90;;;;;;5014446;28;20022;-87
2023/12/10 08:15:31;;;;;;;14.13;3.00;;;8.40;99.90;;;;;;4994653;28;20042;-90
2023/12/10 08:18:00;;;;;;;14.23;3.00;;;9.30;99.90;;;;;;4995424;28;20022;-87
2023/12/10 08:20:26;;;;;;;22.52;3.25;;;9.50;99.90;;;;;;4995013;28;20583;-89
2023/12/10 08:22:54;;;;;;;22.90;3.22;;;9.40;99.90;;;;;;5017182;28;20037;-88
2023/12/10 08:25:20;;;;;;;18.15;3.08;;;;;;;;;;5015113;28;20030;-88
2023/12/10 08:27:46;;;;;;;20.55;3.03;;;;;;;;;;5017911;28;20427;-88
2023/12/10 08:30:13;;;;;;;19.00;2.55;;;;;;;;;;5012953;28;20050;-87
2023/12/10 08:32:39;;;;;;;17.52;2.70;;;;;;;;;;5014648;28;20037;-86
2023/12/10 08:35:06;;;;;;;16.95;3.20;;;;;;;;;;5003423;28;20069;-88
2023/12/10 08:37:31;;;;;;;21.80;3.13;;;9.40;99.90;;;;;;5021185;28;20033;-89
2023/12/10 08:39:57;;;;;;;14.65;2.55;;;;;;;;;;5028343;28;20029;-88
2023/12/10 08:42:24;;;;;;;17.55;3.25;;;9.50;99.90;;;;;;5007065;28;20022;-86
2023/12/10 08:44:54;;;;;;;15.02;2.72;;;;;;;;;;5025920;28;20117;-86
2023/12/10 08:47:20;;;;;;;19.88;3.22;;;;;;;;;;5006534;28;20026;-87
2023/12/10 08:49:48;;;;;;;15.55;2.33;;;9.50;99.90;;;;;;5019362;28;20388;-90
2023/12/10 08:52:17;;;;;;;21.88;2.90;;;9.50;99.90;;;;;;5018447;28;20022;-86
2023/12/10 08:54:43;;;;;;;17.20;3.20;;;;;;;;;;5024166;28;20064;-91
2023/12/10 08:57:09;;;;;;;18.17;2.97;;;;;;;;;;5005317;28;20025;-88
2023/12/10 08:59:35;;;;;;;20.63;3.63;;;;;;;;;;5018307;28;20034;-89
2023/12/10 09:02:02;;;;;;;19.75;3.63;;;9.50;99.90;;;;;;5015592;28;20106;-87
2023/12/10 09:04:28;;;;;;;23.27;4.43;;;;;;;;;;5017684;28;20025;-88
2023/12/10 09:06:54;;;;;;;18.00;3.15;;;9.40;99.90;;;;;;4995437;28;20030;-87
2023/12/10 09:09:20;;;;;;;20.27;3.50;;;;;;;;;;5000361;28;20057;-82
2023/12/10 09:11:47;;;;;;;24.95;2.80;;;;;;;;;;4997328;28;20029;-86
2023/12/10 09:14:17;;;;;;;22.83;3.47;;;9.40;99.90;;;;;;5002630;28;20022;-88
2023/12/10 09:16:44;;;;;;;22.45;3.33;;;;;;;;;;5022781;28;20030;-89
2023/12/10 09:19:11;;;;;;;17.27;2.90;;;;;;;;;;5018650;28;20022;-87
2023/12/10 09:21:37;;;;;;;16.48;2.50;;;9.40;99.90;;;;;;5017118;28;20073;-83
2023/12/10 09:24:03;;;;;;;16.08;2.58;;;;;;;;;;5002981;28;20050;-86
2023/12/10 09:26:34;;;;;;;18.40;3.22;;;9.30;99.90;;;;;;5020901;28;20397;-87
2023/12/10 09:29:00;;;;;;;21.35;3.90;;;7.40;99.90;;;;;;5019449;28;20054;-87
2023/12/10 09:31:27;;;;;;;15.07;3.00;;;9.40;99.90;;;;;;4995189;28;20037;-87
2023/12/10 09:33:52;;;;;;;20.23;5.07;;;9.50;99.90;;;;;;4996748;28;20034;-83
2023/12/10 09:36:18;;;;;;;29.25;11.13;;;9.50;99.90;;;;;;4993007;28;20030;-82
2023/12/10 09:38:44;;;;;;;20.50;3.00;;;;;;;;;;4996883;28;20062;-86
2023/12/10 09:41:10;;;;;;;17.13;3.65;;;9.50;99.90;;;;;;4996359;28;20026;-84
2023/12/10 09:43:36;;;;;;;34.13;10.43;;;;;;;;;;5013815;28;20041;-89
2023/12/10 09:46:08;;;;;;;18.55;4.18;;;9.50;99.90;;;;;;4999201;28;20038;-90
2023/12/10 09:48:45;;;;;;;22.38;3.10;;;9.60;99.90;;;;;;5016226;28;20034;-89
2023/12/10 09:51:12;;;;;;;22.25;4.72;;;9.50;99.90;;;;;;5016041;28;20029;-87
2023/12/10 09:53:57;;;;;;;19.08;3.88;;;;;;;;;;5017975;28;20038;-87
2023/12/10 09:56:26;;;;;;;19.35;3.03;;;9.60;99.90;;;;;;5020649;28;20022;-86
2023/12/10 09:59:06;;;;;;;22.55;3.78;;;11.30;99.90;;;;;;5013184;28;20026;-90
2023/12/10 10:02:12;;;;;;;23.30;4.38;;;10.80;99.90;;;;;;5028207;28;20036;-86
2023/12/10 10:04:59;;;;;;;21.30;3.55;;;9.50;99.90;;;;;;4946530;29;20217;-88
2023/12/10 10:07:24;;;;;;;21.75;5.47;;;9.60;99.90;;;;;;5002215;28;20045;-89
2023/12/10 10:09:51;;;;;;;34.45;6.05;;;9.90;99.90;;;;;;5013225;28;20053;-87
2023/12/10 10:12:16;;;;;;;33.47;11.45;;;9.50;99.90;;;;;;4996447;28;20049;-87
2023/12/10 10:14:54;;;;;;;17.88;4.05;;;9.60;99.90;;;;;;5009384;28;20030;-87
2023/12/10 10:17:36;;;;;;;17.95;3.50;;;10.40;99.90;;;;;;4988849;28;20722;-87
2023/12/10 10:20:04;;;;;;;16.75;2.67;;;9.80;99.90;;;;;;5010936;28;20038;-87
2023/12/10 10:22:30;;;;;;;27.27;9.65;;;9.60;99.90;;;;;;4991434;28;20025;-88
2023/12/10 10:24:58;;;;;;;24.63;4.10;;;9.60;99.90;;;;;;5010901;28;20045;-87
2023/12/10 10:27:27;;;;;;;24.40;6.53;;;10.10;99.90;;;;;;4996347;28;20033;-88
2023/12/10 10:29:53;;;;;;;17.15;3.92;;;9.70;99.90;;;;;;4998244;28;20025;-86
2023/12/10 10:32:23;;;;;;;20.88;3.03;;;9.70;99.90;;;;;;5012319;28;20109;-86
2023/12/10 10:34:50;;;;;;;25.63;5.03;;;10.80;99.90;;;;;;4998264;28;20044;-87
2023/12/10 10:37:21;;;;;;;19.05;3.53;;;9.70;99.90;;;;;;5016650;28;20036;-89
2023/12/10 10:39:50;;;;;;;18.02;2.95;;;9.80;99.90;;;;;;5016864;28;20026;-84
2023/12/10 10:42:18;;;;;;;21.27;3.17;;;9.70;99.90;;;;;;5012623;28;20065;-87
2023/12/10 10:44:43;;;;;;;24.25;4.65;;;9.80;99.90;;;;;;4994652;28;20030;-88
2023/12/10 10:47:09;;;;;;;22.13;3.78;;;9.80;99.90;;;;;;5007216;28;20029;-88
2023/12/10 10:49:38;;;;;;;22.98;2.97;;;9.80;99.90;;;;;;5010340;28;20038;-87
2023/12/10 10:52:09;;;;;;;20.58;2.92;;;9.90;99.90;;;;;;5009190;28;20026;-90
2023/12/10 10:54:35;;;;;;;23.95;3.90;;;9.90;99.90;;;;;;5011059;28;20017;-87
2023/12/10 10:57:04;;;;;;;15.30;3.35;;;9.90;99.90;;;;;;5013972;28;20113;-87
2023/12/10 10:59:31;;;;;;;19.83;3.70;;;9.90;99.90;;;;;;5011991;28;20038;-87
2023/12/10 11:02:01;;;;;;;15.80;3.47;;;9.90;99.90;;;;;;5014376;28;20026;-86
2023/12/10 11:04:49;;;;;;;21.20;3.78;;;9.80;99.90;;;;;;4996576;28;20026;-84
2023/12/10 11:07:16;;;;;;;20.63;3.17;;;9.40;99.90;;;;;;4994883;28;20040;-89
2023/12/10 11:09:58;;;;;;;23.02;3.45;;;9.80;99.90;;;;;;4996801;28;20116;-86
2023/12/10 11:12:39;;;;;;;18.33;2.90;;;9.80;99.90;;;;;;4992518;28;20064;-87
2023/12/10 11:15:21;;;;;;;17.85;3.08;;;9.80;99.90;;;;;;4992154;28;20140;-89
2023/12/10 11:17:52;;;;;;;20.42;3.30;;;9.80;99.90;;;;;;4997614;28;20034;-88
2023/12/10 11:20:38;;;;;;;19.40;3.10;;;9.80;99.90;;;;;;5008225;28;20036;-88
2023/12/10 11:23:06;;;;;;;21.58;3.80;;;9.90;99.90;;;;;;5003233;28;20044;-87
2023/12/10 11:25:32;;;;;;;20.02;4.15;;;9.90;99.90;;;;;;5028081;28;20035;-89
2023/12/10 11:28:20;;;;;;;19.38;3.20;;;9.80;99.90;;;;;;5009999;28;20042;-89
2023/12/10 11:30:46;;;;;;;26.33;4.15;;;9.80;99.90;;;;;;5020435;28;20018;-88
2023/12/10 11:33:13;;;;;;;15.23;2.80;;;10.10;99.90;;;;;;5018371;28;20057;-87
2023/12/10 11:35:40;;;;;;;20.10;2.95;;;10.70;99.90;;;;;;5023033;28;20045;-89
2023/12/10 11:38:06;;;;;;;24.15;3.95;;;10.00;99.90;;;;;;5007591;28;20028;-87
2023/12/10 11:40:33;;;;;;;17.77;3.70;;;10.00;99.90;;;;;;5005083;28;20093;-87
2023/12/10 11:43:09;;;;;;;16.88;3.53;;;10.10;99.90;;;;;;4999318;28;20403;-89
2023/12/10 11:45:37;;;;;;;20.77;3.58;;;9.90;99.90;;;;;;5016718;28;20042;-88
2023/12/10 11:48:05;;;;;;;17.35;2.83;;;10.00;99.90;;;;;;4999702;28;20030;-88
2023/12/10 11:50:32;;;;;;;22.10;3.38;;;10.10;99.90;;;;;;5025464;28;20006;-87
2023/12/10 11:52:58;;;;;;;19.88;3.00;;;10.30;99.90;;;;;;5026642;28;20046;-86
2023/12/10 11:55:25;;;;;;;16.77;2.97;;;10.30;99.90;;;;;;5007668;28;20076;-87
2023/12/10 11:57:51;;;;;;;16.52;2.55;;;10.40;99.90;;;;;;5005104;28;21237;-88
2023/12/10 12:00:17;;;;;;;18.88;3.70;;;10.50;99.90;;;;;;5020847;28;20140;-90
2023/12/10 12:02:52;;;;;;;20.48;3.72;;;10.60;99.90;;;;;;5008191;28;20034;-88
2023/12/10 12:05:30;;;;;;;24.05;4.43;;;10.70;99.90;;;;;;5022937;28;20038;-89
2023/12/10 12:07:56;;;;;;;20.70;3.10;;;10.60;99.90;;;;;;5003895;28;20064;-91
2023/12/10 12:10:22;;;;;;;17.88;2.85;;;10.50;99.90;;;;;;5009041;28;20042;-89
2023/12/10 12:12:48;;;;;;;16.80;3.90;;;10.80;99.90;;;;;;5024720;28;20037;-85
2023/12/10 12:15:15;;;;;;;15.88;3.10;;;10.70;99.90;;;;;;5012214;28;20026;-87
2023/12/10 12:17:42;;;;;;;15.48;2.97;;;10.80;99.90;;;;;;4993063;28;20053;-87
2023/12/10 12:20:19;;;;;;;20.15;3.00;;;10.80;99.90;;;;;;5025111;28;20234;-87
2023/12/10 12:22:45;;;;;;;17.27;2.72;;;10.70;99.90;;;;;;4988143;28;20034;-88
2023/12/10 12:25:14;;;;;;;17.00;3.63;;;10.70;99.90;;;;;;5003196;28;20022;-86
2023/12/10 12:27:43;;;;;;;17.45;3.60;;;;;;;;;;5022764;28;20033;-88
2023/12/10 12:30:09;;;;;;;24.80;5.07;;;;;;;;;;5017835;28;20030;-87
2023/12/10 12:32:36;;;;;;;19.00;4.15;;;;;;;;;;5018778;28;20025;-88
2023/12/10 12:35:02;;;;;;;18.38;3.10;;;;;;;;;;4999431;28;20026;-89
2023/12/10 12:37:31;;;;;;;18.20;4.18;;;10.70;99.90;;;;;;5022750;28;20049;-88
2023/12/10 12:39:57;;;;;;;16.77;3.70;;;;;;;;;;5006212;28;20053;-85
2023/12/10 12:42:23;;;;;;;21.48;4.38;;;11.60;99.90;;;;;;5022529;28;20026;-87
2023/12/10 12:44:50;;;;;;;16.02;3.53;;;10.70;99.90;;;;;;5005421;28;20218;-89
2023/12/10 12:47:16;;;;;;;11.60;2.75;;;10.60;99.90;;;;;;5019510;28;20010;-90
2023/12/10 12:49:42;;;;;;;19.90;3.65;;;10.70;99.90;;;;;;5021861;28;20120;-86
2023/12/10 12:52:09;;;;;;;20.20;3.53;;;;;;;;;;5021410;28;20026;-88
2023/12/10 12:54:35;;;;;;;15.88;3.15;;;10.60;99.90;;;;;;5001524;28;20064;-89
2023/12/10 12:57:01;;;;;;;20.08;3.15;;;;;;;;;;5015349;28;20105;-88
2023/12/10 12:59:28;;;;;;;15.35;3.92;;;10.60;99.90;;;;;;5019542;28;20049;-87
2023/12/10 13:01:54;;;;;;;16.02;3.28;;;10.50;99.90;;;;;;5022638;28;20026;-87
2023/12/10 13:04:20;;;;;;;17.50;3.00;;;10.60;99.90;;;;;;5020482;28;20042;-87
2023/12/10 13:06:46;;;;;;;13.95;2.90;;;10.60;99.90;;;;;;5000332;28;20033;-88
2023/12/10 13:09:12;;;;;;;22.40;3.38;;;10.60;99.90;;;;;;5014973;28;20026;-86
2023/12/10 13:11:37;;;;;;;16.45;3.50;;;10.60;99.90;;;;;;5001360;28;20042;-87
2023/12/10 13:14:04;;;;;;;19.52;3.30;;;10.60;99.90;;;;;;4998358;28;20476;-86